Time,TemperatureF,DewpointF,PressureIn,WindDirection,WindDirectionDegrees,WindSpeedMPH,WindSpeedGustMPH,Humidity,HourlyPrecipIn,Conditions,Clouds,dailyrainin,SoftwareType,DateUTC
2013-02-11 00:04:00,40.4,40.4,29.24,ENE,65,6.0,6.0,100,0.00,,---,0.00,VWS V14.00,2013-02-11 00:04:00,
2013-02-11 00:09:00,40.4,40.4,29.25,NE,54,8.0,12.0,100,0.00,,---,0.00,VWS V14.00,2013-02-11 00:09:00,
2013-02-11 00:14:00,40.5,40.5,29.25,ENE,65,7.0,10.0,100,0.00,,---,0.00,VWS V14.00,2013-02-11 00:14:00,
2013-02-11 00:19:00,40.5,40.5,29.25,NE,53,8.0,10.0,100,0.00,,---,0.00,VWS V14.00,2013-02-11 00:19:00,
2013-02-11 00:24:00,40.4,40.4,29.25,ENE,57,6.0,10.0,100,0.01,,---,0.01,VWS V14.00,2013-02-11 00:24:00,
2013-02-11 00:29:00,40.3,40.3,29.26,NE,51,13.0,14.0,100,0.01,,---,0.01,VWS V14.00,2013-02-11 00:29:00,
2013-02-11 00:34:00,40.0,40.0,29.26,ENE,69,8.0,14.0,100,0.01,,---,0.01,VWS V14.00,2013-02-11 00:34:00,
2013-02-11 00:41:00,39.8,39.8,29.26,ENE,65,16.0,16.0,100,0.01,,---,0.01,VWS V14.00,2013-02-11 00:41:00,
2013-02-11 00:48:00,39.5,39.5,29.27,ENE,70,14.0,15.0,100,0.02,,---,0.02,VWS V14.00,2013-02-11 00:48:00,
2013-02-11 00:54:00,39.3,39.3,29.27,ENE,62,4.0,10.0,100,0.02,,---,0.02,VWS V14.00,2013-02-11 00:54:00,
2013-02-11 01:02:00,39.2,39.2,29.27,ESE,104,11.0,11.0,100,0.02,,---,0.02,VWS V14.00,2013-02-11 01:02:00,
2013-02-11 01:11:00,39.0,39.0,29.27,ENE,76,7.0,9.0,100,0.02,,---,0.02,VWS V14.00,2013-02-11 01:11:00,
2013-02-11 01:17:00,38.8,38.8,29.28,ENE,74,5.0,10.0,100,0.02,,---,0.02,VWS V14.00,2013-02-11 01:17:00,
2013-02-11 01:24:00,38.7,38.7,29.28,ENE,67,13.0,16.0,100,0.01,,---,0.02,VWS V14.00,2013-02-11 01:24:00,
2013-02-11 01:29:00,38.6,38.6,29.28,East,88,11.0,15.0,100,0.01,,---,0.02,VWS V14.00,2013-02-11 01:29:00,
2013-02-11 01:34:00,38.4,38.4,29.28,ENE,59,6.0,9.0,100,0.01,,---,0.02,VWS V14.00,2013-02-11 01:34:00,
2013-02-11 01:39:00,38.3,38.0,29.28,ENE,60,8.0,14.0,99,0.01,,---,0.02,VWS V14.00,2013-02-11 01:39:00,
2013-02-11 01:44:00,38.3,38.0,29.28,East,82,13.0,14.0,99,0.00,,---,0.02,VWS V14.00,2013-02-11 01:44:00,
2013-02-11 01:49:00,38.3,38.0,29.28,ENE,59,9.0,13.0,99,0.00,,---,0.02,VWS V14.00,2013-02-11 01:49:00,
2013-02-11 01:54:00,38.3,37.8,29.28,NNE,23,15.0,18.0,98,0.00,,---,0.02,VWS V14.00,2013-02-11 01:54:00,
2013-02-11 01:59:00,38.3,37.8,29.29,ENE,64,9.0,13.0,98,0.00,,---,0.02,VWS V14.00,2013-02-11 01:59:00,
2013-02-11 02:06:00,38.3,37.5,29.29,NE,49,12.0,18.0,97,0.00,,---,0.02,VWS V14.00,2013-02-11 02:06:00,
2013-02-11 02:12:00,38.5,37.7,29.29,ENE,76,14.0,16.0,97,0.00,,---,0.02,VWS V14.00,2013-02-11 02:12:00,
2013-02-11 02:18:00,38.5,37.7,29.29,ENE,70,10.0,12.0,97,0.00,,---,0.02,VWS V14.00,2013-02-11 02:18:00,
2013-02-11 02:25:00,38.5,37.7,29.29,NE,44,13.0,15.0,97,0.00,,---,0.02,VWS V14.00,2013-02-11 02:25:00,
2013-02-11 02:30:00,38.5,37.5,29.30,ENE,65,16.0,17.0,96,0.00,,---,0.02,VWS V14.00,2013-02-11 02:30:00,
2013-02-11 02:35:00,38.5,37.5,29.30,NE,43,7.0,14.0,96,0.00,,---,0.02,VWS V14.00,2013-02-11 02:35:00,
2013-02-11 02:40:00,38.5,37.5,29.31,NE,51,11.0,15.0,96,0.00,,---,0.02,VWS V14.00,2013-02-11 02:40:00,
2013-02-11 02:45:00,38.5,37.5,29.30,NE,34,15.0,21.0,96,0.00,,---,0.02,VWS V14.00,2013-02-11 02:45:00,
2013-02-11 02:52:00,38.5,37.5,29.31,ENE,60,6.0,12.0,96,0.00,,---,0.02,VWS V14.00,2013-02-11 02:52:00,
2013-02-11 02:58:00,38.5,37.5,29.31,ENE,65,12.0,14.0,96,0.00,,---,0.02,VWS V14.00,2013-02-11 02:58:00,
2013-02-11 03:05:00,38.4,37.4,29.31,East,99,10.0,14.0,96,0.00,,---,0.02,VWS V14.00,2013-02-11 03:05:00,
2013-02-11 03:10:00,38.3,37.3,29.31,ENE,70,17.0,17.0,96,0.00,,---,0.02,VWS V14.00,2013-02-11 03:10:00,
2013-02-11 03:16:00,38.3,37.0,29.31,ENE,78,9.0,11.0,95,0.00,,---,0.02,VWS V14.00,2013-02-11 03:16:00,
2013-02-11 03:24:00,38.3,37.0,29.32,ENE,57,12.0,13.0,95,0.00,,---,0.02,VWS V14.00,2013-02-11 03:24:00,
2013-02-11 03:30:00,38.3,37.0,29.32,NE,51,10.0,10.0,95,0.00,,---,0.02,VWS V14.00,2013-02-11 03:30:00,
2013-02-11 03:35:00,38.3,37.0,29.32,NE,51,13.0,18.0,95,0.00,,---,0.02,VWS V14.00,2013-02-11 03:35:00,
2013-02-11 03:41:00,38.2,36.6,29.32,ENE,76,10.0,15.0,94,0.00,,---,0.02,VWS V14.00,2013-02-11 03:41:00,
2013-02-11 03:49:00,38.3,36.7,29.32,ENE,63,6.0,13.0,94,0.00,,---,0.02,VWS V14.00,2013-02-11 03:49:00,
2013-02-11 03:54:00,38.3,37.0,29.32,ENE,58,17.0,17.0,95,0.00,,---,0.02,VWS V14.00,2013-02-11 03:54:00,
2013-02-11 04:01:00,38.3,36.7,29.33,ENE,67,9.0,14.0,94,0.00,,---,0.02,VWS V14.00,2013-02-11 04:01:00,
2013-02-11 04:06:00,38.4,36.8,29.33,ENE,68,8.0,14.0,94,0.00,,---,0.02,VWS V14.00,2013-02-11 04:06:00,
2013-02-11 04:11:00,38.4,36.8,29.33,East,89,10.0,10.0,94,0.00,,---,0.02,VWS V14.00,2013-02-11 04:11:00,
2013-02-11 04:16:00,38.5,37.2,29.34,East,84,8.0,14.0,95,0.00,,---,0.02,VWS V14.00,2013-02-11 04:16:00,
2013-02-11 04:21:00,38.5,37.2,29.34,NE,51,8.0,14.0,95,0.00,,---,0.02,VWS V14.00,2013-02-11 04:21:00,
2013-02-11 04:26:00,38.5,37.2,29.35,ENE,65,8.0,18.0,95,0.00,,---,0.02,VWS V14.00,2013-02-11 04:26:00,
2013-02-11 04:31:00,38.5,37.2,29.35,ENE,57,12.0,12.0,95,0.00,,---,0.02,VWS V14.00,2013-02-11 04:31:00,
2013-02-11 04:36:00,38.4,37.1,29.35,NE,42,12.0,13.0,95,0.00,,---,0.02,VWS V14.00,2013-02-11 04:36:00,
2013-02-11 04:41:00,38.4,37.1,29.35,ENE,63,10.0,16.0,95,0.00,,---,0.02,VWS V14.00,2013-02-11 04:41:00,
2013-02-11 04:46:00,38.4,37.1,29.35,NE,37,13.0,17.0,95,0.00,,---,0.02,VWS V14.00,2013-02-11 04:46:00,
2013-02-11 04:51:00,38.4,37.1,29.36,ENE,71,10.0,10.0,95,0.00,,---,0.02,VWS V14.00,2013-02-11 04:51:00,
2013-02-11 04:57:00,38.4,37.1,29.35,NE,39,12.0,13.0,95,0.00,,---,0.02,VWS V14.00,2013-02-11 04:57:00,
2013-02-11 05:00:00,38.5,37.2,29.36,NE,35,6.0,10.0,95,0.00,,---,0.02,VWS V14.00,2013-02-11 05:00:00,
2013-02-11 05:01:00,38.5,37.2,29.36,East,85,11.0,12.0,95,0.00,,---,0.02,VWS V14.00,2013-02-11 05:01:00,
2013-02-11 05:02:00,38.5,37.2,29.36,East,81,13.0,13.0,95,0.00,,---,0.02,VWS V14.00,2013-02-11 05:02:00,
2013-02-11 05:07:00,38.6,37.3,29.36,NE,50,7.0,10.0,95,0.00,,---,0.02,VWS V14.00,2013-02-11 05:07:00,
2013-02-11 05:12:00,38.7,37.4,29.37,ENE,69,11.0,13.0,95,0.00,,---,0.02,VWS V14.00,2013-02-11 05:12:00,
2013-02-11 05:17:00,38.7,37.4,29.37,ENE,78,12.0,12.0,95,0.00,,---,0.02,VWS V14.00,2013-02-11 05:17:00,
2013-02-11 05:22:00,38.7,37.4,29.37,NE,51,11.0,12.0,95,0.00,,---,0.02,VWS V14.00,2013-02-11 05:22:00,
2013-02-11 05:27:00,38.8,37.5,29.37,East,80,10.0,10.0,95,0.00,,---,0.02,VWS V14.00,2013-02-11 05:27:00,
2013-02-11 05:33:00,38.9,37.6,29.38,NE,49,6.0,11.0,95,0.00,,---,0.02,VWS V14.00,2013-02-11 05:33:00,
2013-02-11 05:38:00,39.0,37.7,29.38,East,86,5.0,11.0,95,0.00,,---,0.02,VWS V14.00,2013-02-11 05:38:00,
2013-02-11 05:43:00,38.9,37.9,29.38,East,79,9.0,16.0,96,0.00,,---,0.02,VWS V14.00,2013-02-11 05:43:00,
2013-02-11 05:48:00,38.9,37.9,29.39,East,96,11.0,15.0,96,0.00,,---,0.02,VWS V14.00,2013-02-11 05:48:00,
2013-02-11 05:53:00,38.7,37.9,29.39,ENE,59,11.0,12.0,97,0.00,,---,0.02,VWS V14.00,2013-02-11 05:53:00,
2013-02-11 05:58:00,38.6,37.8,29.39,ENE,68,11.0,12.0,97,0.00,,---,0.02,VWS V14.00,2013-02-11 05:58:00,
2013-02-11 06:03:00,38.5,37.7,29.39,East,83,11.0,13.0,97,0.00,,---,0.02,VWS V14.00,2013-02-11 06:03:00,
2013-02-11 06:08:00,38.4,37.9,29.39,ENE,71,11.0,13.0,98,0.00,,---,0.02,VWS V14.00,2013-02-11 06:08:00,
2013-02-11 06:13:00,38.3,37.8,29.40,NE,56,4.0,10.0,98,0.00,,---,0.02,VWS V14.00,2013-02-11 06:13:00,
2013-02-11 06:19:00,38.3,37.8,29.40,East,94,10.0,10.0,98,0.00,,---,0.02,VWS V14.00,2013-02-11 06:19:00,
2013-02-11 06:24:00,38.2,37.7,29.41,East,80,6.0,11.0,98,0.00,,---,0.02,VWS V14.00,2013-02-11 06:24:00,
2013-02-11 06:30:00,38.2,37.9,29.41,East,79,12.0,13.0,99,0.00,,---,0.02,VWS V14.00,2013-02-11 06:30:00,
2013-02-11 06:35:00,38.2,37.9,29.41,East,80,10.0,11.0,99,0.00,,---,0.02,VWS V14.00,2013-02-11 06:35:00,
2013-02-11 06:40:00,38.1,37.8,29.41,East,86,8.0,12.0,99,0.00,,---,0.02,VWS V14.00,2013-02-11 06:40:00,
2013-02-11 06:45:00,38.0,37.7,29.42,ENE,71,11.0,13.0,99,0.00,,---,0.02,VWS V14.00,2013-02-11 06:45:00,
2013-02-11 06:51:00,38.0,37.7,29.42,East,87,6.0,7.0,99,0.00,,---,0.02,VWS V14.00,2013-02-11 06:51:00,
2013-02-11 06:57:00,38.0,37.7,29.42,East,90,12.0,13.0,99,0.00,,---,0.02,VWS V14.00,2013-02-11 06:57:00,
2013-02-11 07:02:00,37.9,37.6,29.42,East,84,11.0,14.0,99,0.00,,---,0.02,VWS V14.00,2013-02-11 07:02:00,
2013-02-11 07:07:00,37.8,37.5,29.43,East,83,6.0,9.0,99,0.00,,---,0.02,VWS V14.00,2013-02-11 07:07:00,
2013-02-11 07:12:00,37.8,37.5,29.43,East,90,6.0,10.0,99,0.00,,---,0.02,VWS V14.00,2013-02-11 07:12:00,
2013-02-11 07:17:00,37.8,37.5,29.44,East,84,14.0,15.0,99,0.00,,---,0.02,VWS V14.00,2013-02-11 07:17:00,
2013-02-11 07:23:00,37.7,37.5,29.44,East,79,5.0,11.0,99,0.00,,---,0.02,VWS V14.00,2013-02-11 07:23:00,
2013-02-11 07:28:00,37.6,37.3,29.44,NE,49,7.0,11.0,99,0.00,,---,0.02,VWS V14.00,2013-02-11 07:28:00,
2013-02-11 07:33:00,37.6,37.3,29.45,ENE,61,10.0,14.0,99,0.00,,---,0.02,VWS V14.00,2013-02-11 07:33:00,
2013-02-11 07:38:00,37.6,37.3,29.45,ENE,64,5.0,11.0,99,0.00,,---,0.02,VWS V14.00,2013-02-11 07:38:00,
2013-02-11 07:43:00,37.6,37.3,29.45,East,88,11.0,12.0,99,0.00,,---,0.02,VWS V14.00,2013-02-11 07:43:00,
2013-02-11 07:48:00,37.7,37.5,29.46,East,96,12.0,14.0,99,0.00,,---,0.02,VWS V14.00,2013-02-11 07:48:00,
2013-02-11 07:53:00,37.8,37.5,29.46,ENE,65,10.0,12.0,99,0.00,,---,0.02,VWS V14.00,2013-02-11 07:53:00,
2013-02-11 07:58:00,37.8,37.5,29.46,East,100,9.0,14.0,99,0.00,,---,0.02,VWS V14.00,2013-02-11 07:58:00,
2013-02-11 08:03:00,37.8,37.5,29.46,ESE,103,14.0,15.0,99,0.00,,---,0.02,VWS V14.00,2013-02-11 08:03:00,
2013-02-11 08:08:00,37.9,37.6,29.47,ENE,74,7.0,10.0,99,0.00,,---,0.02,VWS V14.00,2013-02-11 08:08:00,
2013-02-11 08:13:00,37.9,37.6,29.47,East,87,11.0,12.0,99,0.00,,---,0.02,VWS V14.00,2013-02-11 08:13:00,
2013-02-11 08:18:00,37.9,37.6,29.47,East,91,10.0,15.0,99,0.00,,---,0.02,VWS V14.00,2013-02-11 08:18:00,
2013-02-11 08:23:00,37.8,37.5,29.47,East,89,10.0,11.0,99,0.00,,---,0.02,VWS V14.00,2013-02-11 08:23:00,
2013-02-11 08:28:00,37.6,37.3,29.48,ENE,76,12.0,13.0,99,0.00,,---,0.02,VWS V14.00,2013-02-11 08:28:00,
2013-02-11 08:35:00,37.5,37.2,29.48,East,93,13.0,13.0,99,0.00,,---,0.02,VWS V14.00,2013-02-11 08:35:00,
2013-02-11 08:40:00,37.4,37.2,29.49,ENE,71,7.0,14.0,99,0.00,,---,0.02,VWS V14.00,2013-02-11 08:40:00,
2013-02-11 08:45:00,37.4,37.2,29.49,East,86,11.0,14.0,99,0.00,,---,0.02,VWS V14.00,2013-02-11 08:45:00,
2013-02-11 08:50:00,37.4,37.2,29.49,ENE,67,14.0,17.0,99,0.00,,---,0.02,VWS V14.00,2013-02-11 08:50:00,
2013-02-11 08:55:00,37.4,36.9,29.49,East,88,14.0,18.0,98,0.00,,---,0.02,VWS V14.00,2013-02-11 08:55:00,
2013-02-11 09:01:00,37.5,37.2,29.50,East,94,12.0,15.0,99,0.00,,---,0.02,VWS V14.00,2013-02-11 09:01:00,
2013-02-11 09:07:00,37.5,37.0,29.50,ESE,113,11.0,12.0,98,0.00,,---,0.02,VWS V14.00,2013-02-11 09:07:00,
2013-02-11 09:12:00,37.6,37.1,29.50,East,92,7.0,7.0,98,0.00,,---,0.02,VWS V14.00,2013-02-11 09:12:00,
2013-02-11 09:17:00,37.7,37.2,29.50,East,94,12.0,12.0,98,0.00,,---,0.02,VWS V14.00,2013-02-11 09:17:00,
2013-02-11 09:22:00,37.7,37.2,29.51,East,88,13.0,15.0,98,0.01,,---,0.02,VWS V14.00,2013-02-11 09:22:00,
2013-02-11 09:27:00,37.8,37.3,29.51,East,86,7.0,11.0,98,0.01,,---,0.02,VWS V14.00,2013-02-11 09:27:00,
2013-02-11 09:36:00,37.8,37.0,29.52,ENE,65,7.0,12.0,97,0.01,,---,0.02,VWS V14.00,2013-02-11 09:36:00,
2013-02-11 09:41:00,37.9,37.1,29.52,East,98,11.0,11.0,97,0.01,,---,0.02,VWS V14.00,2013-02-11 09:41:00,
2013-02-11 09:46:00,37.9,37.1,29.53,East,86,7.0,10.0,97,0.01,,---,0.02,VWS V14.00,2013-02-11 09:46:00,
2013-02-11 09:56:00,38.0,37.0,29.53,East,88,4.0,9.0,96,0.01,,---,0.02,VWS V14.00,2013-02-11 09:56:00,
2013-02-11 10:01:00,38.0,37.0,29.53,East,96,11.0,12.0,96,0.01,,---,0.02,VWS V14.00,2013-02-11 10:01:00,
2013-02-11 10:06:00,38.1,37.3,29.54,East,98,4.0,10.0,97,0.01,,---,0.02,VWS V14.00,2013-02-11 10:06:00,
2013-02-11 10:11:00,38.1,37.1,29.54,ENE,74,4.0,6.0,96,0.01,,---,0.02,VWS V14.00,2013-02-11 10:11:00,
2013-02-11 10:16:00,38.1,37.1,29.54,East,88,5.0,9.0,96,0.01,,---,0.02,VWS V14.00,2013-02-11 10:16:00,
2013-02-11 10:21:00,38.2,37.2,29.54,ENE,76,7.0,7.0,96,0.01,,---,0.02,VWS V14.00,2013-02-11 10:21:00,
2013-02-11 10:26:00,38.2,37.2,29.55,East,95,2.0,2.0,96,0.00,,---,0.02,VWS V14.00,2013-02-11 10:26:00,
2013-02-11 10:31:00,38.2,37.2,29.55,ENE,78,5.0,6.0,96,0.00,,---,0.02,VWS V14.00,2013-02-11 10:31:00,
2013-02-11 10:36:00,38.3,37.3,29.55,East,93,6.0,6.0,96,0.00,,---,0.02,VWS V14.00,2013-02-11 10:36:00,
2013-02-11 10:41:00,38.3,37.3,29.55,East,88,9.0,9.0,96,0.00,,---,0.02,VWS V14.00,2013-02-11 10:41:00,
2013-02-11 10:46:00,38.3,37.3,29.56,ENE,74,8.0,9.0,96,0.00,,---,0.02,VWS V14.00,2013-02-11 10:46:00,
2013-02-11 10:51:00,38.2,36.9,29.56,East,89,5.0,7.0,95,0.00,,---,0.02,VWS V14.00,2013-02-11 10:51:00,
2013-02-11 10:56:00,38.2,36.9,29.56,ENE,61,4.0,10.0,95,0.00,,---,0.02,VWS V14.00,2013-02-11 10:56:00,
2013-02-11 11:01:00,38.3,37.0,29.56,East,82,7.0,7.0,95,0.00,,---,0.02,VWS V14.00,2013-02-11 11:01:00,
2013-02-11 11:07:00,38.4,37.1,29.57,East,81,11.0,13.0,95,0.00,,---,0.02,VWS V14.00,2013-02-11 11:07:00,
2013-02-11 11:13:00,38.4,37.1,29.57,ENE,78,5.0,10.0,95,0.00,,---,0.02,VWS V14.00,2013-02-11 11:13:00,
2013-02-11 11:18:00,38.5,37.2,29.57,East,94,7.0,8.0,95,0.00,,---,0.02,VWS V14.00,2013-02-11 11:18:00,
2013-02-11 11:24:00,38.4,36.8,29.57,ENE,67,4.0,7.0,94,0.00,,---,0.02,VWS V14.00,2013-02-11 11:24:00,
2013-02-11 11:29:00,38.3,36.7,29.57,East,79,6.0,12.0,94,0.00,,---,0.02,VWS V14.00,2013-02-11 11:29:00,
2013-02-11 11:34:00,38.2,36.6,29.58,East,86,14.0,14.0,94,0.00,,---,0.02,VWS V14.00,2013-02-11 11:34:00,
2013-02-11 11:39:00,38.2,36.6,29.58,East,82,10.0,10.0,94,0.00,,---,0.02,VWS V14.00,2013-02-11 11:39:00,
2013-02-11 11:45:00,38.2,36.6,29.58,ESE,105,10.0,12.0,94,0.00,,---,0.02,VWS V14.00,2013-02-11 11:45:00,
2013-02-11 11:50:00,38.2,36.6,29.58,ENE,70,8.0,11.0,94,0.00,,---,0.02,VWS V14.00,2013-02-11 11:50:00,
2013-02-11 11:55:00,38.3,36.7,29.58,East,79,4.0,7.0,94,0.00,,---,0.02,VWS V14.00,2013-02-11 11:55:00,
2013-02-11 12:01:00,38.4,36.8,29.59,ENE,78,6.0,10.0,94,0.00,,---,0.02,VWS V14.00,2013-02-11 12:01:00,
2013-02-11 12:06:00,38.4,36.8,29.59,East,88,6.0,9.0,94,0.00,,---,0.02,VWS V14.00,2013-02-11 12:06:00,
2013-02-11 12:11:00,38.4,36.8,29.59,East,84,6.0,7.0,94,0.00,,---,0.02,VWS V14.00,2013-02-11 12:11:00,
2013-02-11 12:16:00,38.5,36.7,29.59,ENE,67,8.0,11.0,93,0.00,,---,0.02,VWS V14.00,2013-02-11 12:16:00,
2013-02-11 12:21:00,38.6,36.8,29.59,ESE,104,12.0,12.0,93,0.00,,---,0.02,VWS V14.00,2013-02-11 12:21:00,
2013-02-11 12:27:00,38.7,36.8,29.60,ESE,106,12.0,13.0,93,0.00,,---,0.02,VWS V14.00,2013-02-11 12:27:00,
2013-02-11 12:32:00,38.7,36.8,29.60,ESE,104,10.0,10.0,93,0.00,,---,0.02,VWS V14.00,2013-02-11 12:32:00,
2013-02-11 12:37:00,38.6,36.8,29.60,East,101,10.0,13.0,93,0.00,,---,0.02,VWS V14.00,2013-02-11 12:37:00,
2013-02-11 12:43:00,38.6,37.0,29.60,East,86,11.0,14.0,94,0.00,,---,0.02,VWS V14.00,2013-02-11 12:43:00,
2013-02-11 12:48:00,38.5,36.7,29.61,East,93,7.0,10.0,93,0.00,,---,0.02,VWS V14.00,2013-02-11 12:48:00,
2013-02-11 12:53:00,38.4,36.6,29.61,East,97,8.0,9.0,93,0.00,,---,0.02,VWS V14.00,2013-02-11 12:53:00,
2013-02-11 12:58:00,38.4,36.6,29.61,East,86,5.0,10.0,93,0.00,,---,0.02,VWS V14.00,2013-02-11 12:58:00,
2013-02-11 13:03:00,38.4,36.6,29.62,ENE,78,8.0,10.0,93,0.00,,---,0.02,VWS V14.00,2013-02-11 13:03:00,
2013-02-11 13:08:00,38.3,36.5,29.62,ENE,69,7.0,9.0,93,0.00,,---,0.02,VWS V14.00,2013-02-11 13:08:00,
2013-02-11 13:13:00,38.3,36.5,29.62,ENE,59,7.0,12.0,93,0.00,,---,0.02,VWS V14.00,2013-02-11 13:13:00,
2013-02-11 13:18:00,38.2,36.4,29.62,ENE,75,4.0,9.0,93,0.00,,---,0.02,VWS V14.00,2013-02-11 13:18:00,
2013-02-11 13:23:00,38.2,36.1,29.62,East,93,6.0,6.0,92,0.00,,---,0.02,VWS V14.00,2013-02-11 13:23:00,
2013-02-11 13:28:00,38.2,36.1,29.63,ENE,74,6.0,10.0,92,0.00,,---,0.02,VWS V14.00,2013-02-11 13:28:00,
2013-02-11 13:33:00,38.2,36.1,29.63,East,81,4.0,9.0,92,0.00,,---,0.02,VWS V14.00,2013-02-11 13:33:00,
2013-02-11 13:39:00,38.2,36.1,29.63,ENE,69,4.0,6.0,92,0.00,,---,0.02,VWS V14.00,2013-02-11 13:39:00,
2013-02-11 13:45:00,38.2,36.1,29.64,ENE,76,5.0,6.0,92,0.00,,---,0.02,VWS V14.00,2013-02-11 13:45:00,
2013-02-11 13:51:00,38.2,36.1,29.64,ENE,69,5.0,5.0,92,0.00,,---,0.02,VWS V14.00,2013-02-11 13:51:00,
2013-02-11 13:56:00,38.2,35.8,29.64,ENE,75,4.0,4.0,91,0.00,,---,0.02,VWS V14.00,2013-02-11 13:56:00,
2013-02-11 14:05:00,38.3,35.9,29.65,NE,51,7.0,7.0,91,0.00,,---,0.02,VWS V14.00,2013-02-11 14:05:00,
2013-02-11 14:10:00,38.2,35.5,29.64,ENE,73,6.0,9.0,90,0.00,,---,0.02,VWS V14.00,2013-02-11 14:10:00,
2013-02-11 14:15:00,38.3,35.6,29.65,NE,46,6.0,6.0,90,0.00,,---,0.02,VWS V14.00,2013-02-11 14:15:00,
2013-02-11 14:20:00,38.3,35.3,29.65,NE,45,6.0,7.0,89,0.00,,---,0.02,VWS V14.00,2013-02-11 14:20:00,
2013-02-11 14:25:00,38.3,35.3,29.65,NE,53,4.0,8.0,89,0.00,,---,0.02,VWS V14.00,2013-02-11 14:25:00,
2013-02-11 14:31:00,38.4,35.5,29.65,NE,56,5.0,5.0,89,0.00,,---,0.02,VWS V14.00,2013-02-11 14:31:00,
2013-02-11 14:36:00,38.3,35.3,29.66,NE,54,4.0,5.0,89,0.00,,---,0.02,VWS V14.00,2013-02-11 14:36:00,
2013-02-11 14:42:00,38.4,35.5,29.66,East,86,3.0,4.0,89,0.00,,---,0.02,VWS V14.00,2013-02-11 14:42:00,
2013-02-11 14:47:00,38.4,35.7,29.66,ENE,67,4.0,6.0,90,0.00,,---,0.02,VWS V14.00,2013-02-11 14:47:00,
2013-02-11 14:52:00,38.4,35.7,29.66,ENE,67,4.0,4.0,90,0.00,,---,0.02,VWS V14.00,2013-02-11 14:52:00,
2013-02-11 14:58:00,38.4,35.7,29.66,ENE,67,3.0,3.0,90,0.00,,---,0.02,VWS V14.00,2013-02-11 14:58:00,
2013-02-11 15:04:00,38.4,35.7,29.66,ENE,64,2.0,4.0,90,0.00,,---,0.02,VWS V14.00,2013-02-11 15:04:00,
2013-02-11 15:09:00,38.5,35.8,29.66,ENE,64,3.0,4.0,90,0.00,,---,0.02,VWS V14.00,2013-02-11 15:09:00,
2013-02-11 15:15:00,38.5,35.8,29.66,ENE,78,3.0,3.0,90,0.00,,---,0.02,VWS V14.00,2013-02-11 15:15:00,
2013-02-11 15:21:00,38.5,35.8,29.66,East,84,1.0,3.0,90,0.00,,---,0.02,VWS V14.00,2013-02-11 15:21:00,
2013-02-11 15:26:00,38.5,35.8,29.67,ENE,76,5.0,5.0,90,0.00,,---,0.02,VWS V14.00,2013-02-11 15:26:00,
2013-02-11 15:31:00,38.5,35.8,29.67,ENE,76,4.0,4.0,90,0.00,,---,0.02,VWS V14.00,2013-02-11 15:31:00,
2013-02-11 15:37:00,38.5,35.5,29.66,East,82,3.0,4.0,89,0.00,,---,0.02,VWS V14.00,2013-02-11 15:37:00,
2013-02-11 15:42:00,38.5,35.8,29.67,East,83,5.0,5.0,90,0.00,,---,0.02,VWS V14.00,2013-02-11 15:42:00,
2013-02-11 15:47:00,38.5,35.8,29.67,ESE,107,3.0,4.0,90,0.00,,---,0.02,VWS V14.00,2013-02-11 15:47:00,
2013-02-11 15:53:00,38.5,36.1,29.68,ESE,107,3.0,3.0,91,0.00,,---,0.02,VWS V14.00,2013-02-11 15:53:00,
2013-02-11 15:59:00,38.5,36.1,29.68,ESE,107,2.0,3.0,91,0.00,,---,0.02,VWS V14.00,2013-02-11 15:59:00,
2013-02-11 16:05:00,38.6,36.5,29.68,ESE,107,3.0,4.0,92,0.00,,---,0.02,VWS V14.00,2013-02-11 16:05:00,
2013-02-11 16:11:00,38.6,36.5,29.69,ESE,108,2.0,2.0,92,0.00,,---,0.02,VWS V14.00,2013-02-11 16:11:00,
2013-02-11 16:16:00,38.5,36.7,29.69,ESE,109,4.0,4.0,93,0.00,,---,0.02,VWS V14.00,2013-02-11 16:16:00,
2013-02-11 16:21:00,38.6,37.0,29.69,ESE,111,4.0,7.0,94,0.00,,---,0.02,VWS V14.00,2013-02-11 16:21:00,
2013-02-11 16:26:00,38.5,36.9,29.69,SE,130,7.0,7.0,94,0.00,,---,0.02,VWS V14.00,2013-02-11 16:26:00,
2013-02-11 16:32:00,38.4,37.1,29.69,ESE,107,4.0,5.0,95,0.00,,---,0.02,VWS V14.00,2013-02-11 16:32:00,
2013-02-11 16:38:00,38.4,37.1,29.69,ESE,108,7.0,9.0,95,0.00,,---,0.02,VWS V14.00,2013-02-11 16:38:00,
2013-02-11 16:43:00,38.4,37.4,29.69,SE,134,4.0,4.0,96,0.00,,---,0.02,VWS V14.00,2013-02-11 16:43:00,
2013-02-11 16:49:00,38.4,37.4,29.69,SE,134,6.0,9.0,96,0.00,,---,0.02,VWS V14.00,2013-02-11 16:49:00,
2013-02-11 16:54:00,38.3,37.3,29.69,ESE,107,6.0,7.0,96,0.00,,---,0.02,VWS V14.00,2013-02-11 16:54:00,
2013-02-11 17:00:00,38.3,37.3,29.70,ESE,119,8.0,11.0,96,0.00,,---,0.02,VWS V14.00,2013-02-11 17:00:00,
2013-02-11 17:05:00,38.1,37.1,29.70,SE,128,7.0,10.0,96,0.00,,---,0.02,VWS V14.00,2013-02-11 17:05:00,
2013-02-11 17:13:00,38.1,37.1,29.71,ESE,116,8.0,9.0,96,0.00,,---,0.02,VWS V14.00,2013-02-11 17:13:00,
2013-02-11 17:18:00,38.2,37.4,29.70,East,100,10.0,10.0,97,0.00,,---,0.02,VWS V14.00,2013-02-11 17:18:00,
2013-02-11 17:23:00,38.3,37.5,29.71,East,100,4.0,6.0,97,0.00,,---,0.02,VWS V14.00,2013-02-11 17:23:00,
2013-02-11 17:29:00,38.3,37.8,29.71,ESE,105,7.0,7.0,98,0.00,,---,0.02,VWS V14.00,2013-02-11 17:29:00,
2013-02-11 17:34:00,38.2,37.7,29.71,ESE,112,11.0,11.0,98,0.00,,---,0.02,VWS V14.00,2013-02-11 17:34:00,
2013-02-11 17:40:00,38.1,37.6,29.71,ESE,113,7.0,9.0,98,0.00,,---,0.02,VWS V14.00,2013-02-11 17:40:00,
2013-02-11 17:46:00,38.1,37.6,29.72,ESE,109,7.0,9.0,98,0.00,,---,0.02,VWS V14.00,2013-02-11 17:46:00,
2013-02-11 17:52:00,38.0,37.5,29.72,ESE,111,7.0,8.0,98,0.00,,---,0.02,VWS V14.00,2013-02-11 17:52:00,
2013-02-11 17:58:00,37.9,37.4,29.72,ESE,113,6.0,6.0,98,0.00,,---,0.02,VWS V14.00,2013-02-11 17:58:00,
2013-02-11 18:03:00,37.9,37.4,29.73,SE,132,3.0,6.0,98,0.01,,---,0.03,VWS V14.00,2013-02-11 18:03:00,
2013-02-11 18:08:00,38.0,37.7,29.73,ESE,115,8.0,10.0,99,0.01,,---,0.03,VWS V14.00,2013-02-11 18:08:00,
2013-02-11 18:13:00,38.0,37.7,29.73,East,87,6.0,7.0,99,0.01,,---,0.03,VWS V14.00,2013-02-11 18:13:00,
2013-02-11 18:19:00,38.1,37.8,29.73,ESE,117,8.0,10.0,99,0.01,,---,0.03,VWS V14.00,2013-02-11 18:19:00,
2013-02-11 18:25:00,38.2,37.9,29.74,SE,129,7.0,9.0,99,0.01,,---,0.03,VWS V14.00,2013-02-11 18:25:00,
2013-02-11 18:32:00,38.3,38.0,29.74,SE,132,5.0,10.0,99,0.02,,---,0.04,VWS V14.00,2013-02-11 18:32:00,
2013-02-11 18:37:00,38.1,37.8,29.74,SE,140,8.0,11.0,99,0.02,,---,0.04,VWS V14.00,2013-02-11 18:37:00,
2013-02-11 18:42:00,38.1,37.8,29.74,SE,125,9.0,9.0,99,0.02,,---,0.04,VWS V14.00,2013-02-11 18:42:00,
2013-02-11 18:47:00,38.1,37.8,29.75,SE,129,5.0,7.0,99,0.02,,---,0.04,VWS V14.00,2013-02-11 18:47:00,
2013-02-11 18:52:00,38.2,37.9,29.75,SE,130,3.0,4.0,99,0.02,,---,0.04,VWS V14.00,2013-02-11 18:52:00,
2013-02-11 18:58:00,38.2,37.9,29.75,ESE,118,4.0,6.0,99,0.02,,---,0.05,VWS V14.00,2013-02-11 18:58:00,
2013-02-11 19:03:00,38.0,37.7,29.75,SE,126,4.0,6.0,99,0.02,,---,0.05,VWS V14.00,2013-02-11 19:03:00,
2013-02-11 19:08:00,37.9,37.6,29.75,SE,128,4.0,6.0,99,0.02,,---,0.05,VWS V14.00,2013-02-11 19:08:00,
2013-02-11 19:14:00,37.9,37.6,29.75,ESE,115,6.0,9.0,99,0.02,,---,0.06,VWS V14.00,2013-02-11 19:14:00,
2013-02-11 19:19:00,37.7,37.5,29.76,SE,132,5.0,5.0,99,0.02,,---,0.06,VWS V14.00,2013-02-11 19:19:00,
2013-02-11 19:24:00,37.7,37.5,29.76,SE,146,6.0,6.0,99,0.02,,---,0.06,VWS V14.00,2013-02-11 19:24:00,
2013-02-11 19:29:00,37.8,37.5,29.76,SE,128,8.0,11.0,99,0.02,,---,0.06,VWS V14.00,2013-02-11 19:29:00,
2013-02-11 19:35:00,37.7,37.5,29.76,ESE,120,6.0,7.0,99,0.02,,---,0.06,VWS V14.00,2013-02-11 19:35:00,
2013-02-11 19:40:00,37.7,37.5,29.76,ESE,113,4.0,6.0,99,0.02,,---,0.06,VWS V14.00,2013-02-11 19:40:00,
2013-02-11 19:45:00,37.8,37.5,29.76,SE,140,4.0,6.0,99,0.02,,---,0.06,VWS V14.00,2013-02-11 19:45:00,